Time;durP1;ratioP1;P1;durP2;ratioP2;P2;SDS_P1;SDS_P2;PMS_P1;PMS_P2;Temp;Humidity;BMP_temperature;BMP_pressure;BME280_temperature;BME280_humidity;BME280_pressure;Samples;Min_cycle;Max_cycle;Signal;HPM_P1;HPM_P2
2022/09/22 00:00:57;;;;;;;2.60;2.00;;;8.30;99.90;;;;;;5112749;28;20209;-48
2022/09/22 00:03:29;;;;;;;3.97;2.60;;;8.30;99.90;;;;;;5112279;28;20201;-49
2022/09/22 00:06:01;;;;;;;3.03;2.63;;;8.30;99.90;;;;;;5111815;28;20241;-48
2022/09/22 00:08:31;;;;;;;3.13;2.60;;;8.30;99.90;;;;;;5102849;28;20214;-48
2022/09/22 00:11:00;;;;;;;4.40;3.10;;;8.30;99.90;;;;;;5101971;28;20204;-48
2022/09/22 00:13:29;;;;;;;6.10;4.17;;;8.30;99.90;;;;;;5112272;28;20192;-49
2022/09/22 00:15:56;;;;;;;3.77;3.47;;;8.30;99.90;;;;;;5112229;28;20224;-48
2022/09/22 00:18:23;;;;;;;3.00;2.80;;;8.30;99.90;;;;;;5110969;28;20217;-48
2022/09/22 00:20:50;;;;;;;3.17;2.87;;;8.30;99.90;;;;;;5112694;28;20200;-49
2022/09/22 00:23:17;;;;;;;2.73;1.97;;;8.20;99.90;;;;;;5107861;28;20193;-48
2022/09/22 00:25:44;;;;;;;3.50;2.10;;;8.20;99.90;;;;;;5106746;28;20209;-48
2022/09/22 00:28:12;;;;;;;4.73;3.47;;;8.20;99.90;;;;;;5110943;28;20652;-49
2022/09/22 00:30:42;;;;;;;4.67;2.80;;;8.10;99.90;;;;;;5112352;28;20831;-48
2022/09/22 00:33:10;;;;;;;2.37;2.17;;;8.10;99.90;;;;;;5112109;28;20236;-49
2022/09/22 00:35:37;;;;;;;3.53;2.50;;;8.10;99.90;;;;;;5112311;28;20197;-48
2022/09/22 00:38:06;;;;;;;2.53;2.33;;;8.00;99.90;;;;;;5106313;28;20249;-48
2022/09/22 00:40:34;;;;;;;2.77;2.27;;;8.00;99.90;;;;;;5109183;28;20201;-48
2022/09/22 00:43:19;;;;;;;2.57;2.37;;;8.00;99.90;;;;;;5103585;28;20679;-48
2022/09/22 00:45:52;;;;;;;3.03;1.90;;;8.00;99.90;;;;;;5110522;28;20205;-48
2022/09/22 00:48:23;;;;;;;5.40;1.67;;;8.00;99.90;;;;;;5111977;28;20604;-49
2022/09/22 00:50:53;;;;;;;2.20;1.80;;;7.90;99.90;;;;;;5104407;28;20690;-49
2022/09/22 00:53:24;;;;;;;2.30;2.20;;;7.90;99.90;;;;;;5106064;28;20575;-48
2022/09/22 00:55:55;;;;;;;1.80;1.70;;;7.80;99.90;;;;;;5109955;28;20205;-48
2022/09/22 00:58:31;;;;;;;2.07;1.90;;;7.80;99.90;;;;;;5105143;28;20228;-48
2022/09/22 01:01:00;;;;;;;3.40;2.20;;;7.80;99.90;;;;;;5110835;28;20192;-48
2022/09/22 01:03:29;;;;;;;1.97;1.93;;;7.80;99.90;;;;;;5111431;28;20200;-48
2022/09/22 01:05:59;;;;;;;1.90;1.80;;;7.80;99.90;;;;;;5105204;28;20231;-48
2022/09/22 01:08:30;;;;;;;2.47;2.30;;;7.80;99.90;;;;;;5108971;28;20709;-48
2022/09/22 01:10:58;;;;;;;2.17;2.03;;;7.70;99.90;;;;;;5104637;28;20250;-49
2022/09/22 01:13:35;;;;;;;2.70;2.50;;;7.70;99.90;;;;;;5111773;28;20228;-48
2022/09/22 01:16:25;;;;;;;2.33;2.23;;;7.70;99.90;;;;;;5111895;28;20204;-49
2022/09/22 01:19:08;;;;;;;2.17;1.93;;;7.70;99.90;;;;;;5104221;28;20775;-48
2022/09/22 01:21:41;;;;;;;2.20;2.10;;;7.80;99.90;;;;;;5104089;28;20202;-49
2022/09/22 01:24:45;;;;;;;2.47;2.27;;;7.80;99.90;;;;;;5106465;28;20205;-48
2022/09/22 01:27:53;;;;;;;2.53;2.33;;;7.90;99.90;;;;;;5097373;28;20219;-49
2022/09/22 01:30:26;;;;;;;2.00;1.90;;;7.80;99.90;;;;;;5106045;28;20208;-49
2022/09/22 01:33:17;;;;;;;1.87;1.87;;;7.80;99.90;;;;;;5101129;28;20422;-49
2022/09/22 01:35:56;;;;;;;2.00;1.90;;;7.70;99.90;;;;;;5111671;28;20551;-49
2022/09/22 01:38:32;;;;;;;2.30;2.20;;;7.70;99.90;;;;;;5112187;28;20218;-50
2022/09/22 01:41:03;;;;;;;3.50;3.10;;;7.60;99.90;;;;;;5115064;28;20187;-48
2022/09/22 01:43:40;;;;;;;3.47;2.80;;;7.50;99.90;;;;;;5115094;27;20217;-48
2022/09/22 01:46:13;;;;;;;2.23;2.10;;;7.50;99.90;;;;;;5109185;28;20216;-49
2022/09/22 01:48:44;;;;;;;3.50;2.67;;;7.50;99.90;;;;;;5114889;28;20236;-48
2022/09/22 01:51:18;;;;;;;2.93;2.73;;;7.40;99.90;;;;;;5109347;27;20205;-48
2022/09/22 01:53:49;;;;;;;3.17;2.47;;;7.40;99.90;;;;;;5109570;28;20209;-49
2022/09/22 01:56:18;;;;;;;2.70;2.20;;;7.30;99.90;;;;;;5112140;28;20209;-49
2022/09/22 01:58:50;;;;;;;2.90;2.70;;;7.30;99.90;;;;;;5113207;28;20246;-48
2022/09/22 02:01:21;;;;;;;2.00;1.90;;;7.30;99.90;;;;;;5112820;28;20196;-48
2022/09/22 02:03:52;;;;;;;2.10;1.97;;;7.30;99.90;;;;;;5114854;28;20197;-48
2022/09/22 02:06:23;;;;;;;2.77;2.57;;;7.30;99.90;;;;;;5114983;28;20199;-48
2022/09/22 02:08:55;;;;;;;3.37;3.07;;;7.20;99.90;;;;;;5110279;28;20227;-48
2022/09/22 02:11:23;;;;;;;2.60;2.40;;;7.20;99.90;;;;;;5112353;28;20284;-48
2022/09/22 02:13:51;;;;;;;4.00;2.47;;;7.20;99.90;;;;;;5111475;28;20495;-48
2022/09/22 02:16:22;;;;;;;2.83;2.30;;;7.20;99.90;;;;;;5114674;28;20200;-48
2022/09/22 02:18:53;;;;;;;2.67;2.00;;;7.20;99.90;;;;;;5114574;28;20229;-48
2022/09/22 02:21:21;;;;;;;2.87;2.63;;;7.20;99.90;;;;;;5111013;28;20666;-48
2022/09/22 02:23:49;;;;;;;6.70;3.50;;;7.20;99.90;;;;;;5106892;28;20218;-48
2022/09/22 02:26:22;;;;;;;2.50;2.30;;;7.20;99.90;;;;;;5114622;27;20202;-49
2022/09/22 02:28:52;;;;;;;2.80;2.60;;;7.20;99.90;;;;;;5114513;28;20237;-48
2022/09/22 02:31:23;;;;;;;2.77;2.57;;;7.20;99.90;;;;;;5106397;28;20662;-50
2022/09/22 02:33:51;;;;;;;2.60;2.40;;;7.20;99.90;;;;;;5114331;28;20197;-49
2022/09/22 02:36:34;;;;;;;3.70;3.17;;;7.20;99.90;;;;;;5105514;28;20232;-48
2022/09/22 02:39:08;;;;;;;2.80;2.70;;;7.10;99.90;;;;;;5100737;28;20227;-48
2022/09/22 02:41:46;;;;;;;2.77;2.67;;;7.10;99.90;;;;;;5102207;28;20284;-49
2022/09/22 02:44:19;;;;;;;2.53;2.33;;;7.10;99.90;;;;;;5104226;28;20214;-48
2022/09/22 02:46:53;;;;;;;2.43;2.23;;;7.10;99.90;;;;;;5111012;28;20674;-48
2022/09/22 02:49:21;;;;;;;2.03;1.93;;;7.10;99.90;;;;;;5112424;28;20702;-48
2022/09/22 02:51:49;;;;;;;2.33;2.20;;;7.10;99.90;;;;;;5114073;28;20201;-48
2022/09/22 02:54:16;;;;;;;2.17;2.07;;;7.00;99.90;;;;;;5107987;28;20198;-48
2022/09/22 02:56:44;;;;;;;3.47;2.43;;;7.00;99.90;;;;;;5113712;28;20224;-51
2022/09/22 02:59:11;;;;;;;2.50;1.93;;;7.10;99.90;;;;;;5105743;28;20228;-49
2022/09/22 03:01:38;;;;;;;5.37;4.63;;;7.10;99.90;;;;;;5111351;28;20251;-48
2022/09/22 03:04:07;;;;;;;2.73;2.63;;;7.10;99.90;;;;;;5107461;28;20200;-48
2022/09/22 03:06:35;;;;;;;3.07;2.87;;;7.10;99.90;;;;;;5113619;28;20727;-48
2022/09/22 03:09:02;;;;;;;3.07;2.93;;;7.10;99.90;;;;;;5113579;28;20217;-49
2022/09/22 03:11:30;;;;;;;2.20;2.10;;;7.00;99.90;;;;;;5113759;28;20198;-49
2022/09/22 03:13:57;;;;;;;2.37;2.17;;;7.00;99.90;;;;;;5106540;28;20201;-49
2022/09/22 03:16:24;;;;;;;2.67;2.47;;;6.90;99.90;;;;;;5106623;28;20663;-48
2022/09/22 03:18:51;;;;;;;2.60;2.40;;;6.90;99.90;;;;;;5113306;28;20221;-48
2022/09/22 03:21:20;;;;;;;2.67;2.10;;;7.00;99.90;;;;;;5107905;28;20202;-48
2022/09/22 03:23:47;;;;;;;3.70;2.43;;;7.00;99.90;;;;;;5113075;27;20201;-48
2022/09/22 03:26:15;;;;;;;3.03;2.93;;;7.00;99.90;;;;;;5110245;28;20203;-48
2022/09/22 03:28:42;;;;;;;3.47;3.27;;;7.00;99.90;;;;;;5106793;28;20309;-49
2022/09/22 03:31:10;;;;;;;3.90;3.70;;;6.90;99.90;;;;;;5110783;28;20203;-48
2022/09/22 03:33:37;;;;;;;3.97;3.70;;;6.90;99.90;;;;;;5107514;28;20240;-47
2022/09/22 03:36:05;;;;;;;4.00;3.80;;;7.00;99.90;;;;;;5109107;28;20204;-49
2022/09/22 03:38:34;;;;;;;3.13;2.93;;;7.00;99.90;;;;;;5113031;28;20217;-49
2022/09/22 03:41:01;;;;;;;2.73;2.53;;;7.00;99.90;;;;;;5111836;28;20201;-49
2022/09/22 03:43:28;;;;;;;4.10;3.73;;;6.90;99.90;;;;;;5112967;28;20279;-48
2022/09/22 03:45:59;;;;;;;4.10;3.80;;;6.80;99.90;;;;;;5107513;28;20618;-48
2022/09/22 03:48:31;;;;;;;4.30;3.90;;;6.80;99.90;;;;;;5112781;28;20622;-49
2022/09/22 03:50:58;;;;;;;3.90;3.60;;;6.80;99.90;;;;;;5101042;28;20229;-49
2022/09/22 03:53:25;;;;;;;3.30;3.10;;;6.70;99.90;;;;;;5112380;28;20198;-48
2022/09/22 03:56:04;;;;;;;3.03;2.80;;;6.70;99.90;;;;;;5113006;28;20273;-48
2022/09/22 03:58:31;;;;;;;2.90;2.70;;;6.70;99.90;;;;;;5111970;28;20281;-48
2022/09/22 04:00:58;;;;;;;3.17;2.70;;;6.80;99.90;;;;;;5112735;28;20540;-48
2022/09/22 04:03:28;;;;;;;2.67;2.47;;;6.70;99.90;;;;;;5110710;28;20196;-48
2022/09/22 04:05:55;;;;;;;2.77;2.57;;;6.70;99.90;;;;;;5107788;28;20205;-49
2022/09/22 04:08:25;;;;;;;2.90;2.50;;;6.60;99.90;;;;;;5101050;28;20724;-48
2022/09/22 04:10:54;;;;;;;2.43;2.33;;;6.60;99.90;;;;;;5102215;27;20203;-48
2022/09/22 04:13:21;;;;;;;2.80;2.60;;;6.60;99.90;;;;;;5110450;28;20204;-48
2022/09/22 04:15:48;;;;;;;3.13;2.80;;;6.60;99.90;;;;;;5106005;28;20208;-48
2022/09/22 04:18:15;;;;;;;4.30;2.10;;;6.50;99.90;;;;;;5105768;28;20693;-48
2022/09/22 04:20:44;;;;;;;2.27;2.03;;;6.50;99.90;;;;;;5108231;28;20209;-48
2022/09/22 04:23:11;;;;;;;4.17;2.13;;;6.50;99.90;;;;;;5112776;27;20221;-49
2022/09/22 04:25:38;;;;;;;2.70;1.80;;;6.50;99.90;;;;;;5112072;28;20195;-48
2022/09/22 04:28:07;;;;;;;2.97;1.57;;;6.50;99.90;;;;;;5106705;28;20243;-49
2022/09/22 04:30:35;;;;;;;1.53;1.40;;;6.60;99.90;;;;;;5099547;28;20202;-48
2022/09/22 04:33:02;;;;;;;2.87;1.20;;;6.60;99.90;;;;;;5108403;28;20200;-48
2022/09/22 04:35:30;;;;;;;2.20;1.20;;;6.70;99.90;;;;;;5104537;28;20205;-48
2022/09/22 04:37:58;;;;;;;4.17;1.60;;;6.70;99.90;;;;;;5104433;28;20241;-48
2022/09/22 04:40:25;;;;;;;2.80;1.77;;;6.70;99.90;;;;;;5101770;28;20198;-48
2022/09/22 04:42:52;;;;;;;2.93;1.27;;;6.60;99.90;;;;;;5108781;28;20212;-48
2022/09/22 04:45:22;;;;;;;1.33;1.23;;;6.60;99.90;;;;;;5107771;28;20209;-48
2022/09/22 04:47:51;;;;;;;1.03;0.93;;;6.60;99.90;;;;;;5112105;28;20218;-48
2022/09/22 04:50:20;;;;;;;2.00;0.80;;;6.60;99.90;;;;;;5112153;28;20200;-49
2022/09/22 04:52:48;;;;;;;1.33;0.77;;;6.50;99.90;;;;;;5111815;28;20209;-48
2022/09/22 04:55:16;;;;;;;1.17;0.80;;;6.50;99.90;;;;;;5112070;28;20205;-48
2022/09/22 04:57:46;;;;;;;1.00;1.00;;;6.50;99.90;;;;;;5111351;28;20217;-48
2022/09/22 05:00:15;;;;;;;1.03;0.60;;;6.40;99.90;;;;;;5111469;28;20197;-48
2022/09/22 05:02:46;;;;;;;1.33;1.30;;;6.50;99.90;;;;;;5103248;28;20260;-48
2022/09/22 05:05:18;;;;;;;1.00;1.00;;;6.50;99.90;;;;;;5111063;28;20575;-48
2022/09/22 05:07:47;;;;;;;1.23;1.23;;;6.40;99.90;;;;;;5107525;28;20221;-48
2022/09/22 05:10:16;;;;;;;1.43;1.33;;;6.40;99.90;;;;;;5106944;28;20620;-48
2022/09/22 05:12:46;;;;;;;1.10;1.10;;;6.50;99.90;;;;;;5112852;28;20203;-48
2022/09/22 05:15:14;;;;;;;1.37;1.37;;;6.50;99.90;;;;;;5113095;28;20205;-48
2022/09/22 05:17:47;;;;;;;2.50;1.07;;;6.50;99.90;;;;;;5107646;28;20225;-48
2022/09/22 05:20:15;;;;;;;1.77;1.50;;;6.60;99.90;;;;;;5111904;28;20266;-48
2022/09/22 05:22:42;;;;;;;3.97;2.23;;;6.60;99.90;;;;;;5109768;28;20664;-48
2022/09/22 05:25:11;;;;;;;1.97;1.83;;;6.50;99.90;;;;;;5102554;28;20485;-48
2022/09/22 05:27:42;;;;;;;2.63;2.07;;;6.60;99.90;;;;;;5115128;28;20435;-48
2022/09/22 05:30:10;;;;;;;1.90;1.80;;;6.60;99.90;;;;;;5114711;28;20298;-48
2022/09/22 05:32:37;;;;;;;1.70;1.60;;;6.60;99.90;;;;;;5109875;28;20209;-49
2022/09/22 05:35:07;;;;;;;1.93;1.83;;;6.70;99.90;;;;;;5115026;28;20204;-48
2022/09/22 05:37:34;;;;;;;3.57;2.23;;;6.70;99.90;;;;;;5102812;28;20287;-48
2022/09/22 05:40:02;;;;;;;4.57;2.60;;;6.70;99.90;;;;;;5097646;28;20194;-48
2022/09/22 05:42:29;;;;;;;5.27;2.60;;;6.70;99.90;;;;;;5108670;28;20264;-48
2022/09/22 05:44:56;;;;;;;7.27;3.37;;;6.70;99.90;;;;;;5114522;28;20192;-48
2022/09/22 05:47:23;;;;;;;6.53;3.30;;;6.80;99.90;;;;;;5111277;28;20207;-48
2022/09/22 05:49:50;;;;;;;3.87;3.57;;;6.90;99.90;;;;;;5113625;28;20200;-48
2022/09/22 05:52:18;;;;;;;4.60;4.20;;;7.00;99.90;;;;;;5115285;28;20209;-48
2022/09/22 05:54:45;;;;;;;24.90;10.87;;;7.10;99.90;;;;;;5112081;28;20201;-48
2022/09/22 05:57:12;;;;;;;18.70;9.20;;;7.10;99.90;;;;;;5111497;28;20201;-48
2022/09/22 05:59:39;;;;;;;9.87;6.70;;;7.20;99.90;;;;;;5114591;28;20225;-48
2022/09/22 06:02:07;;;;;;;8.47;7.40;;;7.20;99.90;;;;;;5115119;28;20203;-48
2022/09/22 06:04:34;;;;;;;14.47;9.57;;;7.40;99.90;;;;;;5105091;28;20300;-47
2022/09/22 06:07:01;;;;;;;9.47;7.87;;;7.70;99.90;;;;;;5114928;28;20216;-49
2022/09/22 06:09:30;;;;;;;8.83;6.47;;;8.10;99.90;;;;;;5101800;28;20709;-48
2022/09/22 06:11:57;;;;;;;6.93;6.27;;;8.60;99.90;;;;;;5105100;28;20206;-48
2022/09/22 06:14:24;;;;;;;8.02;5.30;;;9.10;99.90;;;;;;5114188;28;20443;-48
2022/09/22 06:16:51;;;;;;;7.40;4.30;;;9.60;99.90;;;;;;5112103;28;20202;-49
2022/09/22 06:19:18;;;;;;;11.63;5.40;;;9.90;99.90;;;;;;5114269;28;20237;-48
2022/09/22 06:21:45;;;;;;;9.07;6.27;;;9.90;99.90;;;;;;5113430;28;20209;-49
2022/09/22 06:24:12;;;;;;;11.07;7.10;;;9.70;99.90;;;;;;5107504;28;20281;-49
2022/09/22 06:26:41;;;;;;;10.70;7.80;;;9.60;99.90;;;;;;5106257;28;20231;-48
2022/09/22 06:29:09;;;;;;;8.97;6.50;;;9.40;99.90;;;;;;5109922;28;20309;-49
2022/09/22 06:31:36;;;;;;;5.70;5.27;;;9.40;99.90;;;;;;5110736;28;20364;-49
2022/09/22 06:34:03;;;;;;;8.50;5.13;;;9.30;99.90;;;;;;5114006;28;20675;-48
2022/09/22 06:36:30;;;;;;;5.03;3.43;;;9.30;99.90;;;;;;5114361;27;20262;-48
2022/09/22 06:38:58;;;;;;;3.40;3.00;;;9.30;99.90;;;;;;5103864;28;20221;-48
2022/09/22 06:41:25;;;;;;;3.50;3.20;;;9.30;99.90;;;;;;5107855;28;20210;-48
2022/09/22 06:43:54;;;;;;;3.87;3.53;;;9.30;99.90;;;;;;5105062;28;20255;-50
2022/09/22 06:46:23;;;;;;;2.97;2.70;;;9.30;99.90;;;;;;5113924;28;20196;-48
2022/09/22 06:48:52;;;;;;;3.33;3.03;;;9.40;99.90;;;;;;5113995;28;20249;-49
2022/09/22 06:51:19;;;;;;;3.93;2.43;;;9.50;99.90;;;;;;5113848;28;20204;-49
2022/09/22 06:53:46;;;;;;;4.10;2.33;;;9.60;99.90;;;;;;5114191;28;20209;-48
2022/09/22 06:56:13;;;;;;;4.77;3.37;;;9.60;99.90;;;;;;5114191;28;20209;-48
2022/09/22 06:58:43;;;;;;;3.77;3.40;;;9.70;99.90;;;;;;5108233;28;20230;-48
2022/09/22 07:01:12;;;;;;;4.87;2.97;;;9.80;99.90;;;;;;5111359;28;20286;-49
2022/09/22 07:03:40;;;;;;;3.30;3.10;;;9.80;99.90;;;;;;5110310;28;20205;-48
2022/09/22 07:06:08;;;;;;;3.53;2.83;;;9.90;99.90;;;;;;5112704;28;20204;-48
2022/09/22 07:08:37;;;;;;;3.77;3.37;;;10.00;99.90;;;;;;5113805;28;20627;-47
2022/09/22 07:11:06;;;;;;;4.00;3.60;;;10.10;99.90;;;;;;5113716;28;20206;-49
2022/09/22 07:13:38;;;;;;;5.43;3.70;;;10.10;99.90;;;;;;5113631;28;20232;-48
2022/09/22 07:16:07;;;;;;;3.90;3.53;;;10.20;99.90;;;;;;5109904;28;20682;-48
2022/09/22 07:18:39;;;;;;;3.37;3.17;;;10.20;99.90;;;;;;5103698;28;20222;-48
2022/09/22 07:21:08;;;;;;;3.37;3.17;;;10.30;99.90;;;;;;5093135;28;20287;-48
2022/09/22 07:23:35;;;;;;;2.43;2.33;;;10.30;99.90;;;;;;5092851;28;20253;-49
2022/09/22 07:26:03;;;;;;;4.20;3.03;;;10.30;99.90;;;;;;5093198;28;20203;-48
2022/09/22 07:28:32;;;;;;;4.20;3.17;;;10.40;99.90;;;;;;5093040;28;20599;-48
2022/09/22 07:31:04;;;;;;;4.80;3.30;;;10.50;99.90;;;;;;5092712;28;20250;-49
2022/09/22 07:33:32;;;;;;;3.60;3.30;;;10.60;99.90;;;;;;5108691;28;20195;-48
2022/09/22 07:36:07;;;;;;;4.20;3.43;;;10.70;99.90;;;;;;5100517;28;20267;-49
2022/09/22 07:38:35;;;;;;;4.10;3.37;;;10.80;99.90;;;;;;5092740;28;20279;-48
2022/09/22 07:41:02;;;;;;;3.50;3.20;;;10.90;99.90;;;;;;5104387;28;20816;-48
2022/09/22 07:43:30;;;;;;;2.77;2.67;;;11.00;99.90;;;;;;5113060;28;20203;-49
2022/09/22 07:45:57;;;;;;;2.63;2.37;;;11.20;99.90;;;;;;5113074;28;20190;-48
2022/09/22 07:48:44;;;;;;;2.23;2.17;;;11.30;99.90;;;;;;5106822;28;20222;-48
2022/09/22 07:51:15;;;;;;;3.23;2.70;;;11.50;99.90;;;;;;5106276;28;20204;-48
2022/09/22 07:53:42;;;;;;;2.47;2.27;;;11.80;99.90;;;;;;5107901;28;20199;-48
2022/09/22 07:56:12;;;;;;;2.60;2.50;;;12.00;99.90;;;;;;5105405;28;20272;-48
2022/09/22 07:58:43;;;;;;;2.40;2.30;;;12.40;99.90;;;;;;5112472;28;20211;-48
2022/09/22 08:01:11;;;;;;;2.00;1.77;;;12.70;99.90;;;;;;5113077;28;20203;-48
2022/09/22 08:03:38;;;;;;;2.60;2.40;;;12.90;99.90;;;;;;5112592;28;20259;-49
2022/09/22 08:06:10;;;;;;;2.30;2.20;;;13.40;99.90;;;;;;5112845;28;20202;-50
2022/09/22 08:08:44;;;;;;;4.73;2.03;;;14.10;99.90;;;;;;5107772;28;20216;-49
2022/09/22 08:11:14;;;;;;;4.20;2.50;;;14.80;99.90;;;;;;5112535;28;20202;-50
2022/09/22 08:13:43;;;;;;;2.50;2.40;;;15.80;99.90;;;;;;5110579;28;20207;-48
2022/09/22 08:16:10;;;;;;;2.63;2.43;;;16.60;99.90;;;;;;5112571;27;20227;-49
2022/09/22 08:18:38;;;;;;;3.37;2.73;;;17.30;99.90;;;;;;5111814;28;20224;-50
2022/09/22 08:21:06;;;;;;;2.77;2.67;;;17.80;99.90;;;;;;5112497;28;20644;-49
2022/09/22 08:23:33;;;;;;;2.67;2.47;;;18.50;99.90;;;;;;5110083;28;20208;-49
2022/09/22 08:26:05;;;;;;;4.30;2.57;;;18.40;99.90;;;;;;5111248;28;20210;-49
2022/09/22 08:28:32;;;;;;;3.23;2.70;;;19.40;99.90;;;;;;5111122;28;20223;-49
2022/09/22 08:30:59;;;;;;;2.80;2.00;;;20.00;99.90;;;;;;5110103;28;20245;-50
2022/09/22 08:33:29;;;;;;;2.03;1.73;;;19.90;99.90;;;;;;5106479;28;20192;-50
2022/09/22 08:36:02;;;;;;;2.07;1.97;;;20.20;99.90;;;;;;5112083;28;20200;-50
2022/09/22 08:38:30;;;;;;;2.00;1.90;;;19.90;99.90;;;;;;5110294;28;20215;-50
2022/09/22 08:41:18;;;;;;;1.50;1.40;;;19.90;99.90;;;;;;5112121;28;20204;-49
2022/09/22 08:43:54;;;;;;;1.10;1.10;;;20.00;99.90;;;;;;5101833;28;20254;-49
2022/09/22 08:46:25;;;;;;;2.17;2.00;;;20.10;99.90;;;;;;5111634;28;20575;-49
2022/09/22 08:51:54;;;;;;;1.03;1.03;;;21.00;99.90;;;;;;5112073;28;20202;-49
2022/09/22 08:54:25;;;;;;;1.07;1.00;;;20.80;99.90;;;;;;5109333;28;20207;-49
2022/09/22 08:57:11;;;;;;;1.10;1.00;;;20.70;99.90;;;;;;5105508;28;20673;-49
2022/09/22 08:59:44;;;;;;;4.80;2.53;;;21.30;99.90;;;;;;5108811;28;20223;-50
2022/09/22 09:02:44;;;;;;;3.83;3.53;;;21.00;99.90;;;;;;5106151;28;20227;-50
2022/09/22 09:05:47;;;;;;;3.70;3.50;;;20.90;99.90;;;;;;5097078;28;20631;-50
2022/09/22 09:08:44;;;;;;;4.57;3.80;;;20.80;99.90;;;;;;5070285;28;20219;-49
2022/09/22 09:11:23;;;;;;;3.43;2.97;;;20.70;99.90;;;;;;5094939;28;20199;-50
2022/09/22 09:14:14;;;;;;;2.53;2.43;;;20.00;99.90;;;;;;5110082;28;20309;-48
2022/09/22 09:16:48;;;;;;;2.60;2.40;;;19.10;99.90;;;;;;5107674;28;20611;-50
2022/09/22 09:19:18;;;;;;;3.10;2.90;;;19.50;99.90;;;;;;5108024;28;20650;-50
2022/09/22 09:21:50;;;;;;;3.17;2.87;;;19.10;99.90;;;;;;5110390;28;20235;-49
2022/09/22 09:24:29;;;;;;;3.77;2.73;;;18.30;99.90;;;;;;5109626;28;20756;-49
2022/09/22 09:27:03;;;;;;;2.53;2.43;;;19.00;99.90;;;;;;5105871;28;20207;-49
2022/09/22 09:29:39;;;;;;;3.50;2.30;;;18.70;99.90;;;;;;5110375;28;20693;-49
2022/09/22 09:32:14;;;;;;;2.93;2.47;;;19.50;99.90;;;;;;5093668;28;20748;-49
2022/09/22 09:34:42;;;;;;;3.27;2.07;;;19.70;99.90;;;;;;5103415;28;20741;-50
2022/09/22 09:37:14;;;;;;;4.73;2.90;;;19.90;99.90;;;;;;5111543;28;20188;-49
2022/09/22 09:39:44;;;;;;;2.80;2.70;;;19.60;99.90;;;;;;5110668;28;20223;-50
2022/09/22 09:42:19;;;;;;;3.07;2.87;;;20.00;99.90;;;;;;5106469;28;20212;-50
2022/09/22 09:44:52;;;;;;;4.87;2.67;;;20.00;99.90;;;;;;5103832;28;20287;-50
2022/09/22 09:47:35;;;;;;;3.23;2.90;;;20.10;99.90;;;;;;5111360;28;20673;-50
2022/09/22 09:50:02;;;;;;;3.27;3.07;;;20.30;99.90;;;;;;5109147;28;20196;-50
2022/09/22 09:52:30;;;;;;;3.40;3.20;;;19.80;99.90;;;;;;5107830;28;20612;-49
2022/09/22 09:55:00;;;;;;;4.53;4.13;;;19.90;99.90;;;;;;5108495;28;20676;-49
2022/09/22 09:57:28;;;;;;;3.20;3.10;;;20.00;99.90;;;;;;5108454;28;20192;-49
2022/09/22 10:00:31;;;;;;;2.83;2.70;;;20.10;99.90;;;;;;5111280;28;20226;-49
2022/09/22 10:03:12;;;;;;;3.60;3.43;;;20.20;99.90;;;;;;5114361;28;20202;-49
2022/09/22 10:05:40;;;;;;;3.90;3.70;;;20.20;99.90;;;;;;5103432;28;20291;-50
2022/09/22 10:08:18;;;;;;;2.50;2.50;;;20.60;99.90;;;;;;5110164;28;20231;-50
2022/09/22 10:10:47;;;;;;;3.60;3.40;;;20.70;99.90;;;;;;5112725;28;20328;-48
2022/09/22 10:13:24;;;;;;;3.33;3.13;;;20.50;99.90;;;;;;5115917;27;20195;-49
2022/09/22 10:16:27;;;;;;;3.40;3.20;;;20.20;99.90;;;;;;5114723;28;20206;-49
2022/09/22 10:19:05;;;;;;;4.97;4.37;;;19.60;99.90;;;;;;5051405;28;20313;-49
2022/09/22 10:21:36;;;;;;;3.63;3.40;;;19.80;99.90;;;;;;5044947;28;20732;-49
2022/09/22 10:24:24;;;;;;;4.50;4.07;;;19.50;99.90;;;;;;5078836;28;20192;-50
2022/09/22 10:26:55;;;;;;;3.60;3.43;;;19.70;99.90;;;;;;5094735;28;20307;-49
2022/09/22 10:29:22;;;;;;;3.70;3.40;;;19.40;99.90;;;;;;5097510;28;20242;-49
2022/09/22 10:32:17;;;;;;;3.43;3.23;;;19.60;99.90;;;;;;5114502;28;20208;-48
2022/09/22 10:34:45;;;;;;;2.93;2.73;;;20.10;99.90;;;;;;5066696;28;20239;-49
2022/09/22 10:37:14;;;;;;;3.20;2.90;;;20.10;99.90;;;;;;5113363;28;20210;-49
2022/09/22 10:39:46;;;;;;;4.10;3.77;;;19.80;99.90;;;;;;5100375;28;20228;-48
2022/09/22 10:42:26;;;;;;;3.87;3.67;;;19.10;99.90;;;;;;5113168;28;20676;-49
2022/09/22 10:44:56;;;;;;;3.73;3.47;;;18.50;99.90;;;;;;5114081;28;20224;-49
2022/09/22 10:47:39;;;;;;;4.00;3.80;;;18.10;99.90;;;;;;5114297;28;20195;-49
2022/09/22 10:50:30;;;;;;;5.53;4.07;;;17.50;99.90;;;;;;5105076;28;20232;-48
2022/09/22 10:53:10;;;;;;;3.83;3.07;;;16.70;99.90;;;;;;5105046;28;20687;-48
2022/09/22 10:55:46;;;;;;;3.23;3.03;;;16.60;99.90;;;;;;5112206;28;20688;-50
2022/09/22 10:58:32;;;;;;;4.10;3.87;;;17.00;99.90;;;;;;5114098;28;20222;-50
2022/09/22 11:01:13;;;;;;;3.30;3.00;;;17.00;99.90;;;;;;5093567;28;20212;-48
2022/09/22 11:04:21;;;;;;;3.30;3.10;;;17.00;99.90;;;;;;5111924;27;20200;-48
2022/09/22 11:12:49;;;;;;;3.80;3.10;;;16.80;99.90;;;;;;5113909;28;20211;-49
2022/09/22 11:15:31;;;;;;;3.53;3.23;;;17.10;99.90;;;;;;5113618;28;20199;-49
2022/09/22 11:18:27;;;;;;;3.07;2.87;;;17.10;99.90;;;;;;5092996;28;20228;-49
2022/09/22 11:21:05;;;;;;;3.87;3.43;;;17.30;99.90;;;;;;5112657;28;20223;-49
2022/09/22 11:23:55;;;;;;;3.10;2.90;;;17.30;99.90;;;;;;5113357;28;20203;-48
2022/09/22 11:26:46;;;;;;;3.07;2.87;;;17.10;99.90;;;;;;5113724;28;20200;-48
2022/09/22 11:29:55;;;;;;;3.50;3.30;;;16.90;99.90;;;;;;5113428;28;20259;-47
2022/09/22 11:32:36;;;;;;;3.60;3.33;;;16.90;99.90;;;;;;5097815;28;20196;-48
2022/09/22 11:35:38;;;;;;;3.23;3.03;;;16.80;99.90;;;;;;5093138;28;20211;-48
2022/09/22 11:38:23;;;;;;;4.03;3.83;;;16.80;99.90;;;;;;5062712;28;20211;-50
2022/09/22 11:41:20;;;;;;;2.97;2.87;;;16.70;99.90;;;;;;5113173;28;20216;-49
2022/09/22 11:44:23;;;;;;;3.73;3.43;;;16.90;99.90;;;;;;5112939;28;20276;-49
2022/09/22 11:47:12;;;;;;;4.47;4.03;;;17.00;99.90;;;;;;5091483;28;20311;-48
2022/09/22 11:49:53;;;;;;;4.20;3.90;;;16.80;99.90;;;;;;5105896;28;20272;-48
2022/09/22 11:52:34;;;;;;;3.83;3.60;;;16.90;99.90;;;;;;5112866;28;20573;-49
2022/09/22 11:55:22;;;;;;;3.47;3.27;;;16.90;99.90;;;;;;5112951;28;20203;-49
2022/09/22 11:57:53;;;;;;;2.97;2.83;;;17.00;99.90;;;;;;5112786;28;20704;-48
2022/09/22 12:00:21;;;;;;;4.37;3.10;;;17.10;99.90;;;;;;5112875;28;20227;-48
2022/09/22 12:02:54;;;;;;;4.30;3.10;;;17.10;99.90;;;;;;5110777;28;20358;-49
2022/09/22 12:05:27;;;;;;;3.50;3.20;;;17.20;99.90;;;;;;5107090;28;20278;-49
2022/09/22 12:07:58;;;;;;;5.37;3.73;;;17.30;99.90;;;;;;5099781;28;20224;-49
2022/09/22 12:10:33;;;;;;;3.53;3.33;;;17.40;99.90;;;;;;5092280;28;20597;-49
2022/09/22 12:13:01;;;;;;;3.77;3.50;;;17.50;99.90;;;;;;5092100;28;20893;-48
2022/09/22 12:15:34;;;;;;;3.27;3.17;;;17.30;99.90;;;;;;5092094;28;20200;-49
2022/09/22 12:18:09;;;;;;;3.20;3.00;;;17.30;99.90;;;;;;5092114;28;20223;-49
2022/09/22 12:20:49;;;;;;;3.40;3.10;;;17.30;99.90;;;;;;5098736;28;20596;-49
2022/09/22 12:23:27;;;;;;;3.47;3.37;;;17.20;99.90;;;;;;5112139;28;20565;-49
2022/09/22 12:26:04;;;;;;;4.03;3.83;;;17.20;99.90;;;;;;5112621;28;20660;-48
2022/09/22 12:28:32;;;;;;;4.30;3.87;;;17.10;99.90;;;;;;5112383;28;20215;-49
2022/09/22 12:31:04;;;;;;;4.87;3.77;;;17.20;99.90;;;;;;5112430;28;20204;-49
2022/09/22 12:33:33;;;;;;;3.20;3.00;;;17.00;99.90;;;;;;5112197;28;20203;-49
2022/09/22 12:36:02;;;;;;;5.07;4.60;;;17.10;99.90;;;;;;5107560;28;20196;-49
2022/09/22 12:38:30;;;;;;;4.23;3.77;;;17.00;99.90;;;;;;5112049;28;20219;-48
2022/09/22 12:41:03;;;;;;;4.80;2.80;;;17.10;99.90;;;;;;5108237;28;20675;-49
2022/09/22 12:43:35;;;;;;;2.87;2.70;;;17.20;99.90;;;;;;5091679;28;20208;-49
2022/09/22 12:46:11;;;;;;;3.50;3.30;;;17.30;99.90;;;;;;5091736;28;20204;-49
2022/09/22 12:48:38;;;;;;;3.67;3.37;;;17.30;99.90;;;;;;5091339;28;20732;-49
2022/09/22 12:51:31;;;;;;;5.37;3.60;;;17.30;99.90;;;;;;5111352;28;20196;-50
2022/09/22 12:54:46;;;;;;;3.93;3.37;;;17.30;99.90;;;;;;5111802;28;20199;-48
2022/09/22 12:57:45;;;;;;;4.90;3.50;;;17.50;99.90;;;;;;5106796;28;20195;-49
2022/09/22 13:00:25;;;;;;;3.83;3.37;;;17.40;99.90;;;;;;5091600;28;20220;-49
2022/09/22 13:02:53;;;;;;;2.73;2.63;;;17.40;99.90;;;;;;5093296;28;20201;-49
2022/09/22 13:05:38;;;;;;;3.67;3.37;;;17.50;99.90;;;;;;5111640;28;20192;-48
2022/09/22 13:08:06;;;;;;;3.63;2.90;;;17.50;99.90;;;;;;5091553;28;20773;-49
2022/09/22 13:10:59;;;;;;;3.33;3.23;;;17.60;99.90;;;;;;5091498;28;20670;-49
2022/09/22 13:13:42;;;;;;;2.97;2.87;;;17.60;99.90;;;;;;5091265;28;20208;-50
2022/09/22 13:16:35;;;;;;;3.97;2.30;;;17.60;99.90;;;;;;5092091;28;20564;-50
2022/09/22 13:19:07;;;;;;;2.57;2.43;;;17.50;99.90;;;;;;5088155;28;20232;-50
2022/09/22 13:21:35;;;;;;;2.57;2.37;;;17.50;99.90;;;;;;5107943;28;20269;-49
2022/09/22 13:24:06;;;;;;;3.00;2.80;;;17.60;99.90;;;;;;5111851;28;20196;-49
2022/09/22 13:26:35;;;;;;;2.37;2.27;;;17.50;99.90;;;;;;5111883;28;20233;-49
2022/09/22 13:29:10;;;;;;;2.30;2.20;;;17.50;99.90;;;;;;5105692;28;20219;-49
2022/09/22 13:31:43;;;;;;;3.37;2.93;;;17.50;99.90;;;;;;5112718;28;20249;-50